sensor_id;sensor_type;location;lat;lon;timestamp;temperature;humidity
22645;DHT22;11489;50.834;6.752;2023-07-24T00:01:52;18.20;87.80
22645;DHT22;11489;50.834;6.752;2023-07-24T00:04:18;18.20;88.00
22645;DHT22;11489;50.834;6.752;2023-07-24T00:06:43;18.20;88.10
22645;DHT22;11489;50.834;6.752;2023-07-24T00:09:09;18.10;88.00
22645;DHT22;11489;50.834;6.752;2023-07-24T00:11:35;18.10;88.00
22645;DHT22;11489;50.834;6.752;2023-07-24T00:14:00;18.10;88.00
22645;DHT22;11489;50.834;6.752;2023-07-24T00:16:26;18.10;88.00
22645;DHT22;11489;50.834;6.752;2023-07-24T00:18:52;18.10;88.00
22645;DHT22;11489;50.834;6.752;2023-07-24T00:21:17;18.00;88.00
22645;DHT22;11489;50.834;6.752;2023-07-24T00:23:43;18.00;88.10
22645;DHT22;11489;50.834;6.752;2023-07-24T00:26:09;18.00;88.20
22645;DHT22;11489;50.834;6.752;2023-07-24T00:28:34;17.90;88.30
22645;DHT22;11489;50.834;6.752;2023-07-24T00:31:00;17.90;88.20
22645;DHT22;11489;50.834;6.752;2023-07-24T00:33:26;17.90;88.20
22645;DHT22;11489;50.834;6.752;2023-07-24T00:35:58;17.90;88.20
22645;DHT22;11489;50.834;6.752;2023-07-24T00:38:23;17.80;88.30
22645;DHT22;11489;50.834;6.752;2023-07-24T00:40:49;17.80;88.20
22645;DHT22;11489;50.834;6.752;2023-07-24T00:43:16;17.80;88.20
22645;DHT22;11489;50.834;6.752;2023-07-24T00:45:42;17.70;88.20
22645;DHT22;11489;50.834;6.752;2023-07-24T00:48:08;17.70;88.20
22645;DHT22;11489;50.834;6.752;2023-07-24T00:50:35;17.70;88.30
22645;DHT22;11489;50.834;6.752;2023-07-24T00:53:01;17.70;88.40
22645;DHT22;11489;50.834;6.752;2023-07-24T00:55:27;17.60;88.50
22645;DHT22;11489;50.834;6.752;2023-07-24T00:57:53;17.60;88.70
22645;DHT22;11489;50.834;6.752;2023-07-24T01:00:19;17.60;88.80
22645;DHT22;11489;50.834;6.752;2023-07-24T01:02:45;17.50;88.90
22645;DHT22;11489;50.834;6.752;2023-07-24T01:05:13;17.50;88.90
22645;DHT22;11489;50.834;6.752;2023-07-24T01:07:40;17.50;89.00
22645;DHT22;11489;50.834;6.752;2023-07-24T01:10:06;17.50;89.60
22645;DHT22;11489;50.834;6.752;2023-07-24T01:12:44;17.50;88.90
22645;DHT22;11489;50.834;6.752;2023-07-24T01:17:57;17.50;88.90
22645;DHT22;11489;50.834;6.752;2023-07-24T01:20:27;17.50;88.90
22645;DHT22;11489;50.834;6.752;2023-07-24T01:23:14;17.50;89.00
22645;DHT22;11489;50.834;6.752;2023-07-24T01:26:00;17.50;89.30
22645;DHT22;11489;50.834;6.752;2023-07-24T01:28:28;17.50;89.40
22645;DHT22;11489;50.834;6.752;2023-07-24T01:30:54;17.50;89.40
22645;DHT22;11489;50.834;6.752;2023-07-24T01:33:21;17.50;89.40
22645;DHT22;11489;50.834;6.752;2023-07-24T01:35:50;17.50;89.50
22645;DHT22;11489;50.834;6.752;2023-07-24T01:38:16;17.50;89.50
22645;DHT22;11489;50.834;6.752;2023-07-24T01:40:43;17.50;89.50
22645;DHT22;11489;50.834;6.752;2023-07-24T01:43:09;17.50;89.60
22645;DHT22;11489;50.834;6.752;2023-07-24T01:45:35;17.60;89.70
22645;DHT22;11489;50.834;6.752;2023-07-24T01:48:04;17.60;89.80
22645;DHT22;11489;50.834;6.752;2023-07-24T01:50:31;17.70;89.90
22645;DHT22;11489;50.834;6.752;2023-07-24T01:52:56;17.70;89.90
22645;DHT22;11489;50.834;6.752;2023-07-24T01:55:22;17.70;90.00
22645;DHT22;11489;50.834;6.752;2023-07-24T01:57:48;17.80;90.00
22645;DHT22;11489;50.834;6.752;2023-07-24T02:00:13;17.80;90.00
22645;DHT22;11489;50.834;6.752;2023-07-24T02:02:39;17.90;90.00
22645;DHT22;11489;50.834;6.752;2023-07-24T02:05:05;17.90;90.30
22645;DHT22;11489;50.834;6.752;2023-07-24T02:07:30;18.00;89.90
22645;DHT22;11489;50.834;6.752;2023-07-24T02:09:56;18.10;89.80
22645;DHT22;11489;50.834;6.752;2023-07-24T02:12:22;18.10;89.60
22645;DHT22;11489;50.834;6.752;2023-07-24T02:14:48;18.10;89.40
22645;DHT22;11489;50.834;6.752;2023-07-24T02:17:15;18.20;89.20
22645;DHT22;11489;50.834;6.752;2023-07-24T02:19:41;18.20;89.10
22645;DHT22;11489;50.834;6.752;2023-07-24T02:22:07;18.20;89.00
22645;DHT22;11489;50.834;6.752;2023-07-24T02:24:33;18.10;89.00
22645;DHT22;11489;50.834;6.752;2023-07-24T02:27:01;18.10;89.00
22645;DHT22;11489;50.834;6.752;2023-07-24T02:29:27;18.10;89.00
22645;DHT22;11489;50.834;6.752;2023-07-24T02:31:54;18.10;89.10
22645;DHT22;11489;50.834;6.752;2023-07-24T02:34:20;18.10;89.20
22645;DHT22;11489;50.834;6.752;2023-07-24T02:36:55;18.00;89.20
22645;DHT22;11489;50.834;6.752;2023-07-24T02:39:21;18.00;89.30
22645;DHT22;11489;50.834;6.752;2023-07-24T02:41:48;18.00;89.40
22645;DHT22;11489;50.834;6.752;2023-07-24T02:44:14;18.00;89.40
22645;DHT22;11489;50.834;6.752;2023-07-24T02:46:39;18.00;89.50
22645;DHT22;11489;50.834;6.752;2023-07-24T02:49:05;18.00;89.60
22645;DHT22;11489;50.834;6.752;2023-07-24T02:51:31;17.90;89.60
22645;DHT22;11489;50.834;6.752;2023-07-24T02:53:57;17.90;89.70
22645;DHT22;11489;50.834;6.752;2023-07-24T02:56:22;17.90;89.70
22645;DHT22;11489;50.834;6.752;2023-07-24T02:58:48;17.90;89.70
22645;DHT22;11489;50.834;6.752;2023-07-24T03:01:14;17.90;89.70
22645;DHT22;11489;50.834;6.752;2023-07-24T03:03:40;17.90;89.70
22645;DHT22;11489;50.834;6.752;2023-07-24T03:06:06;17.90;89.80
22645;DHT22;11489;50.834;6.752;2023-07-24T03:08:32;17.90;89.80
22645;DHT22;11489;50.834;6.752;2023-07-24T03:10:58;17.80;89.80
22645;DHT22;11489;50.834;6.752;2023-07-24T03:13:24;17.80;89.80
22645;DHT22;11489;50.834;6.752;2023-07-24T03:15:53;17.80;89.90
22645;DHT22;11489;50.834;6.752;2023-07-24T03:18:19;17.80;90.00
22645;DHT22;11489;50.834;6.752;2023-07-24T03:20:45;17.80;89.90
22645;DHT22;11489;50.834;6.752;2023-07-24T03:23:11;17.80;89.90
22645;DHT22;11489;50.834;6.752;2023-07-24T03:25:36;17.70;89.70
22645;DHT22;11489;50.834;6.752;2023-07-24T03:28:02;17.70;89.70
22645;DHT22;11489;50.834;6.752;2023-07-24T03:30:28;17.70;89.60
22645;DHT22;11489;50.834;6.752;2023-07-24T03:32:53;17.60;89.60
22645;DHT22;11489;50.834;6.752;2023-07-24T03:35:19;17.60;89.60
22645;DHT22;11489;50.834;6.752;2023-07-24T03:37:45;17.50;89.70
22645;DHT22;11489;50.834;6.752;2023-07-24T03:40:11;17.50;89.90
22645;DHT22;11489;50.834;6.752;2023-07-24T03:42:37;17.50;90.00
22645;DHT22;11489;50.834;6.752;2023-07-24T03:45:03;17.50;90.10
22645;DHT22;11489;50.834;6.752;2023-07-24T03:47:29;17.40;90.10
22645;DHT22;11489;50.834;6.752;2023-07-24T03:49:54;17.40;90.20
22645;DHT22;11489;50.834;6.752;2023-07-24T03:52:20;17.40;90.20
22645;DHT22;11489;50.834;6.752;2023-07-24T03:54:46;17.40;90.30
22645;DHT22;11489;50.834;6.752;2023-07-24T03:57:12;17.40;90.30
22645;DHT22;11489;50.834;6.752;2023-07-24T03:59:38;17.40;90.40
22645;DHT22;11489;50.834;6.752;2023-07-24T04:02:04;17.40;90.40
22645;DHT22;11489;50.834;6.752;2023-07-24T04:04:30;17.30;90.40
22645;DHT22;11489;50.834;6.752;2023-07-24T04:06:56;17.40;90.40
22645;DHT22;11489;50.834;6.752;2023-07-24T04:09:22;17.30;90.40
22645;DHT22;11489;50.834;6.752;2023-07-24T04:11:47;17.40;90.40
22645;DHT22;11489;50.834;6.752;2023-07-24T04:14:13;17.30;90.50
22645;DHT22;11489;50.834;6.752;2023-07-24T04:16:38;17.40;90.50
22645;DHT22;11489;50.834;6.752;2023-07-24T04:19:04;17.30;90.50
22645;DHT22;11489;50.834;6.752;2023-07-24T04:21:30;17.40;90.60
22645;DHT22;11489;50.834;6.752;2023-07-24T04:23:56;17.40;90.60
22645;DHT22;11489;50.834;6.752;2023-07-24T04:26:22;17.40;90.60
22645;DHT22;11489;50.834;6.752;2023-07-24T04:28:48;17.40;90.50
22645;DHT22;11489;50.834;6.752;2023-07-24T04:31:13;17.40;90.50
22645;DHT22;11489;50.834;6.752;2023-07-24T04:33:39;17.40;90.50
22645;DHT22;11489;50.834;6.752;2023-07-24T04:36:05;17.50;90.60
22645;DHT22;11489;50.834;6.752;2023-07-24T04:38:30;17.50;90.60
22645;DHT22;11489;50.834;6.752;2023-07-24T04:40:56;17.50;90.90
22645;DHT22;11489;50.834;6.752;2023-07-24T04:43:22;17.50;90.60
22645;DHT22;11489;50.834;6.752;2023-07-24T04:45:47;17.50;90.50
22645;DHT22;11489;50.834;6.752;2023-07-24T04:48:13;17.50;90.50
22645;DHT22;11489;50.834;6.752;2023-07-24T04:50:39;17.50;90.50
22645;DHT22;11489;50.834;6.752;2023-07-24T04:53:04;17.50;90.40
22645;DHT22;11489;50.834;6.752;2023-07-24T04:55:30;17.50;90.40
22645;DHT22;11489;50.834;6.752;2023-07-24T04:57:56;17.50;90.40
22645;DHT22;11489;50.834;6.752;2023-07-24T05:00:21;17.50;90.40
22645;DHT22;11489;50.834;6.752;2023-07-24T05:02:47;17.50;90.50
22645;DHT22;11489;50.834;6.752;2023-07-24T05:05:13;17.50;90.60
22645;DHT22;11489;50.834;6.752;2023-07-24T05:07:38;17.60;90.70
22645;DHT22;11489;50.834;6.752;2023-07-24T05:10:04;17.70;91.00
22645;DHT22;11489;50.834;6.752;2023-07-24T05:12:30;17.70;91.20
22645;DHT22;11489;50.834;6.752;2023-07-24T05:14:56;17.80;91.40
22645;DHT22;11489;50.834;6.752;2023-07-24T05:17:21;18.00;91.50
22645;DHT22;11489;50.834;6.752;2023-07-24T05:19:47;18.20;91.50
22645;DHT22;11489;50.834;6.752;2023-07-24T05:22:13;18.30;91.40
22645;DHT22;11489;50.834;6.752;2023-07-24T05:24:38;18.50;91.20
22645;DHT22;11489;50.834;6.752;2023-07-24T05:27:05;18.60;91.00
22645;DHT22;11489;50.834;6.752;2023-07-24T05:29:31;18.70;90.90
22645;DHT22;11489;50.834;6.752;2023-07-24T05:31:57;18.90;90.90
22645;DHT22;11489;50.834;6.752;2023-07-24T05:34:24;19.00;90.80
22645;DHT22;11489;50.834;6.752;2023-07-24T05:36:50;19.10;90.60
22645;DHT22;11489;50.834;6.752;2023-07-24T05:39:15;19.30;90.50
22645;DHT22;11489;50.834;6.752;2023-07-24T05:41:41;19.40;90.40
22645;DHT22;11489;50.834;6.752;2023-07-24T05:44:07;19.50;90.20
22645;DHT22;11489;50.834;6.752;2023-07-24T05:46:32;19.60;90.00
22645;DHT22;11489;50.834;6.752;2023-07-24T05:48:58;19.70;90.10
22645;DHT22;11489;50.834;6.752;2023-07-24T05:51:26;19.70;89.20
22645;DHT22;11489;50.834;6.752;2023-07-24T05:53:51;19.80;88.90
22645;DHT22;11489;50.834;6.752;2023-07-24T05:56:17;19.90;88.70
22645;DHT22;11489;50.834;6.752;2023-07-24T05:58:42;19.90;88.60
22645;DHT22;11489;50.834;6.752;2023-07-24T06:01:08;20.00;88.70
22645;DHT22;11489;50.834;6.752;2023-07-24T06:03:35;20.10;89.10
22645;DHT22;11489;50.834;6.752;2023-07-24T06:06:02;20.20;89.70
22645;DHT22;11489;50.834;6.752;2023-07-24T06:08:28;20.20;88.80
22645;DHT22;11489;50.834;6.752;2023-07-24T06:10:53;20.30;88.60
22645;DHT22;11489;50.834;6.752;2023-07-24T06:13:19;20.40;88.20
22645;DHT22;11489;50.834;6.752;2023-07-24T06:15:47;20.50;87.70
22645;DHT22;11489;50.834;6.752;2023-07-24T06:18:14;20.60;87.40
22645;DHT22;11489;50.834;6.752;2023-07-24T06:20:39;20.60;87.30
22645;DHT22;11489;50.834;6.752;2023-07-24T06:23:05;20.70;86.90
22645;DHT22;11489;50.834;6.752;2023-07-24T06:25:31;20.70;86.50
22645;DHT22;11489;50.834;6.752;2023-07-24T06:27:57;20.70;86.30
22645;DHT22;11489;50.834;6.752;2023-07-24T06:30:23;20.70;86.30
22645;DHT22;11489;50.834;6.752;2023-07-24T06:32:49;20.70;86.10
22645;DHT22;11489;50.834;6.752;2023-07-24T06:35:15;20.70;86.20
22645;DHT22;11489;50.834;6.752;2023-07-24T06:37:40;20.70;86.10
22645;DHT22;11489;50.834;6.752;2023-07-24T06:40:07;20.70;86.00
22645;DHT22;11489;50.834;6.752;2023-07-24T06:42:34;20.70;86.00
22645;DHT22;11489;50.834;6.752;2023-07-24T06:44:59;20.70;86.00
22645;DHT22;11489;50.834;6.752;2023-07-24T06:47:25;20.70;86.00
22645;DHT22;11489;50.834;6.752;2023-07-24T06:49:51;20.70;85.90
22645;DHT22;11489;50.834;6.752;2023-07-24T06:52:16;20.70;85.80
22645;DHT22;11489;50.834;6.752;2023-07-24T06:54:42;20.80;85.90
22645;DHT22;11489;50.834;6.752;2023-07-24T06:57:08;20.80;85.50
22645;DHT22;11489;50.834;6.752;2023-07-24T06:59:34;20.80;85.30
22645;DHT22;11489;50.834;6.752;2023-07-24T07:01:59;20.90;85.20
22645;DHT22;11489;50.834;6.752;2023-07-24T07:04:25;20.90;85.10
22645;DHT22;11489;50.834;6.752;2023-07-24T07:06:50;21.00;85.00
22645;DHT22;11489;50.834;6.752;2023-07-24T07:09:16;21.00;84.70
22645;DHT22;11489;50.834;6.752;2023-07-24T07:11:42;21.00;84.70
22645;DHT22;11489;50.834;6.752;2023-07-24T07:14:10;21.00;84.30
22645;DHT22;11489;50.834;6.752;2023-07-24T07:16:36;21.00;84.00
22645;DHT22;11489;50.834;6.752;2023-07-24T07:19:02;21.00;83.90
22645;DHT22;11489;50.834;6.752;2023-07-24T07:21:28;21.00;83.60
22645;DHT22;11489;50.834;6.752;2023-07-24T07:23:53;21.00;83.60
22645;DHT22;11489;50.834;6.752;2023-07-24T07:26:20;21.00;83.60
22645;DHT22;11489;50.834;6.752;2023-07-24T07:28:45;21.00;83.90
22645;DHT22;11489;50.834;6.752;2023-07-24T07:31:11;21.00;84.10
22645;DHT22;11489;50.834;6.752;2023-07-24T07:33:37;21.00;84.30
22645;DHT22;11489;50.834;6.752;2023-07-24T07:36:03;21.10;84.40
22645;DHT22;11489;50.834;6.752;2023-07-24T07:38:32;21.10;84.50
22645;DHT22;11489;50.834;6.752;2023-07-24T07:40:57;21.20;84.70
22645;DHT22;11489;50.834;6.752;2023-07-24T07:43:23;21.40;84.90
22645;DHT22;11489;50.834;6.752;2023-07-24T07:45:49;21.50;84.80
22645;DHT22;11489;50.834;6.752;2023-07-24T07:48:15;21.60;84.70
22645;DHT22;11489;50.834;6.752;2023-07-24T07:50:40;21.70;84.00
22645;DHT22;11489;50.834;6.752;2023-07-24T07:53:06;21.80;83.10
22645;DHT22;11489;50.834;6.752;2023-07-24T07:55:32;21.80;82.40
22645;DHT22;11489;50.834;6.752;2023-07-24T07:57:58;21.90;82.10
22645;DHT22;11489;50.834;6.752;2023-07-24T08:00:23;21.90;81.90
22645;DHT22;11489;50.834;6.752;2023-07-24T08:02:49;21.90;82.10
22645;DHT22;11489;50.834;6.752;2023-07-24T08:05:15;21.90;82.20
22645;DHT22;11489;50.834;6.752;2023-07-24T08:07:41;22.00;81.80
22645;DHT22;11489;50.834;6.752;2023-07-24T08:10:07;22.00;81.40
22645;DHT22;11489;50.834;6.752;2023-07-24T08:12:33;22.10;81.50
22645;DHT22;11489;50.834;6.752;2023-07-24T08:14:59;22.00;81.50
22645;DHT22;11489;50.834;6.752;2023-07-24T08:17:24;22.10;81.10
22645;DHT22;11489;50.834;6.752;2023-07-24T08:19:50;22.20;80.90
22645;DHT22;11489;50.834;6.752;2023-07-24T08:22:16;22.20;80.90
22645;DHT22;11489;50.834;6.752;2023-07-24T08:24:41;22.20;81.00
22645;DHT22;11489;50.834;6.752;2023-07-24T08:27:07;22.20;81.10
22645;DHT22;11489;50.834;6.752;2023-07-24T08:29:33;22.40;81.20
22645;DHT22;11489;50.834;6.752;2023-07-24T08:32:00;22.40;81.10
22645;DHT22;11489;50.834;6.752;2023-07-24T08:34:26;22.60;81.10
22645;DHT22;11489;50.834;6.752;2023-07-24T08:36:51;22.70;81.20
22645;DHT22;11489;50.834;6.752;2023-07-24T08:39:17;22.90;80.90
22645;DHT22;11489;50.834;6.752;2023-07-24T08:41:42;23.00;80.30
22645;DHT22;11489;50.834;6.752;2023-07-24T08:44:08;23.10;79.80
22645;DHT22;11489;50.834;6.752;2023-07-24T08:46:38;23.20;79.40
22645;DHT22;11489;50.834;6.752;2023-07-24T08:49:15;23.30;78.00
22645;DHT22;11489;50.834;6.752;2023-07-24T08:51:42;23.40;78.20
22645;DHT22;11489;50.834;6.752;2023-07-24T08:54:09;23.40;77.80
22645;DHT22;11489;50.834;6.752;2023-07-24T08:56:38;23.50;78.10
22645;DHT22;11489;50.834;6.752;2023-07-24T08:59:12;23.60;78.20
22645;DHT22;11489;50.834;6.752;2023-07-24T09:01:38;23.70;78.40
22645;DHT22;11489;50.834;6.752;2023-07-24T09:04:04;23.90;77.70
22645;DHT22;11489;50.834;6.752;2023-07-24T09:06:29;24.00;77.20
22645;DHT22;11489;50.834;6.752;2023-07-24T09:08:55;24.10;76.70
22645;DHT22;11489;50.834;6.752;2023-07-24T09:11:21;24.10;76.00
22645;DHT22;11489;50.834;6.752;2023-07-24T09:13:46;24.20;75.70
22645;DHT22;11489;50.834;6.752;2023-07-24T09:16:26;24.20;75.30
22645;DHT22;11489;50.834;6.752;2023-07-24T09:18:52;24.20;72.90
22645;DHT22;11489;50.834;6.752;2023-07-24T09:21:36;24.10;74.30
22645;DHT22;11489;50.834;6.752;2023-07-24T09:24:13;24.10;71.70
22645;DHT22;11489;50.834;6.752;2023-07-24T09:26:52;24.00;72.50
22645;DHT22;11489;50.834;6.752;2023-07-24T09:29:19;24.00;72.10
22645;DHT22;11489;50.834;6.752;2023-07-24T09:31:45;23.90;74.00
22645;DHT22;11489;50.834;6.752;2023-07-24T09:34:18;23.90;74.10
22645;DHT22;11489;50.834;6.752;2023-07-24T09:36:44;23.90;73.40
22645;DHT22;11489;50.834;6.752;2023-07-24T09:39:10;23.90;74.30
22645;DHT22;11489;50.834;6.752;2023-07-24T09:41:41;23.90;74.20
22645;DHT22;11489;50.834;6.752;2023-07-24T09:44:07;24.00;73.90
22645;DHT22;11489;50.834;6.752;2023-07-24T09:46:33;24.00;73.70
22645;DHT22;11489;50.834;6.752;2023-07-24T09:48:59;24.00;73.60
22645;DHT22;11489;50.834;6.752;2023-07-24T09:51:26;24.00;73.40
22645;DHT22;11489;50.834;6.752;2023-07-24T09:54:01;24.10;73.40
22645;DHT22;11489;50.834;6.752;2023-07-24T09:56:32;24.10;72.40
22645;DHT22;11489;50.834;6.752;2023-07-24T09:58:59;24.20;73.40
22645;DHT22;11489;50.834;6.752;2023-07-24T10:01:26;24.30;73.50
22645;DHT22;11489;50.834;6.752;2023-07-24T10:03:53;24.40;73.50
22645;DHT22;11489;50.834;6.752;2023-07-24T10:06:19;24.50;73.50
22645;DHT22;11489;50.834;6.752;2023-07-24T10:08:46;24.60;73.30
22645;DHT22;11489;50.834;6.752;2023-07-24T10:11:13;24.80;73.00
22645;DHT22;11489;50.834;6.752;2023-07-24T10:13:43;24.90;72.80
22645;DHT22;11489;50.834;6.752;2023-07-24T10:16:14;25.10;71.90
22645;DHT22;11489;50.834;6.752;2023-07-24T10:18:46;25.30;72.00
22645;DHT22;11489;50.834;6.752;2023-07-24T10:21:18;25.50;71.10
22645;DHT22;11489;50.834;6.752;2023-07-24T10:23:51;25.60;71.00
22645;DHT22;11489;50.834;6.752;2023-07-24T10:26:23;25.70;70.50
22645;DHT22;11489;50.834;6.752;2023-07-24T10:28:50;25.80;70.20
22645;DHT22;11489;50.834;6.752;2023-07-24T10:31:21;25.80;69.80
22645;DHT22;11489;50.834;6.752;2023-07-24T10:33:48;25.80;68.20
22645;DHT22;11489;50.834;6.752;2023-07-24T10:36:17;25.90;68.50
22645;DHT22;11489;50.834;6.752;2023-07-24T10:38:45;25.80;67.40
22645;DHT22;11489;50.834;6.752;2023-07-24T10:41:11;25.70;67.30
22645;DHT22;11489;50.834;6.752;2023-07-24T10:43:50;25.60;67.00
22645;DHT22;11489;50.834;6.752;2023-07-24T10:46:18;25.50;65.40
22645;DHT22;11489;50.834;6.752;2023-07-24T10:48:48;25.40;66.80
22645;DHT22;11489;50.834;6.752;2023-07-24T10:51:14;25.30;67.10
22645;DHT22;11489;50.834;6.752;2023-07-24T10:53:46;25.20;68.00
22645;DHT22;11489;50.834;6.752;2023-07-24T10:56:12;25.40;67.70
22645;DHT22;11489;50.834;6.752;2023-07-24T10:58:38;25.50;69.60
22645;DHT22;11489;50.834;6.752;2023-07-24T11:01:05;25.80;69.70
22645;DHT22;11489;50.834;6.752;2023-07-24T11:03:32;26.00;68.70
22645;DHT22;11489;50.834;6.752;2023-07-24T11:05:58;26.30;68.10
22645;DHT22;11489;50.834;6.752;2023-07-24T11:08:24;26.40;66.90
22645;DHT22;11489;50.834;6.752;2023-07-24T11:10:55;26.50;65.90
22645;DHT22;11489;50.834;6.752;2023-07-24T11:13:23;26.50;64.40
22645;DHT22;11489;50.834;6.752;2023-07-24T11:15:50;26.60;65.30
22645;DHT22;11489;50.834;6.752;2023-07-24T11:18:16;26.60;65.70
22645;DHT22;11489;50.834;6.752;2023-07-24T11:20:47;26.70;65.20
22645;DHT22;11489;50.834;6.752;2023-07-24T11:23:14;26.90;64.50
22645;DHT22;11489;50.834;6.752;2023-07-24T11:25:40;27.00;65.40
22645;DHT22;11489;50.834;6.752;2023-07-24T11:28:07;27.20;65.20
22645;DHT22;11489;50.834;6.752;2023-07-24T11:30:34;27.30;63.80
22645;DHT22;11489;50.834;6.752;2023-07-24T11:33:02;27.40;63.50
22645;DHT22;11489;50.834;6.752;2023-07-24T11:35:28;27.50;63.20
22645;DHT22;11489;50.834;6.752;2023-07-24T11:37:57;27.60;63.40
22645;DHT22;11489;50.834;6.752;2023-07-24T11:40:35;27.60;62.30
22645;DHT22;11489;50.834;6.752;2023-07-24T11:43:01;27.40;60.70
22645;DHT22;11489;50.834;6.752;2023-07-24T11:45:27;27.20;61.60
22645;DHT22;11489;50.834;6.752;2023-07-24T11:47:53;26.80;61.20
22645;DHT22;11489;50.834;6.752;2023-07-24T11:50:20;26.50;61.60
22645;DHT22;11489;50.834;6.752;2023-07-24T11:52:48;26.10;62.20
22645;DHT22;11489;50.834;6.752;2023-07-24T11:55:15;25.80;62.90
22645;DHT22;11489;50.834;6.752;2023-07-24T11:57:41;25.40;63.80
22645;DHT22;11489;50.834;6.752;2023-07-24T12:00:21;25.10;65.20
22645;DHT22;11489;50.834;6.752;2023-07-24T12:02:47;25.00;66.20
22645;DHT22;11489;50.834;6.752;2023-07-24T12:05:12;25.00;67.80
22645;DHT22;11489;50.834;6.752;2023-07-24T12:07:38;25.10;68.10
22645;DHT22;11489;50.834;6.752;2023-07-24T12:10:05;25.10;67.50
22645;DHT22;11489;50.834;6.752;2023-07-24T12:12:46;24.80;65.30
22645;DHT22;11489;50.834;6.752;2023-07-24T12:15:13;24.30;64.10
22645;DHT22;11489;50.834;6.752;2023-07-24T12:17:40;23.70;64.20
22645;DHT22;11489;50.834;6.752;2023-07-24T12:20:09;23.10;64.80
22645;DHT22;11489;50.834;6.752;2023-07-24T12:22:37;22.60;66.90
22645;DHT22;11489;50.834;6.752;2023-07-24T12:25:03;22.10;68.40
22645;DHT22;11489;50.834;6.752;2023-07-24T12:27:29;21.70;70.40
22645;DHT22;11489;50.834;6.752;2023-07-24T12:29:56;21.50;72.40
22645;DHT22;11489;50.834;6.752;2023-07-24T12:32:22;21.30;73.30
22645;DHT22;11489;50.834;6.752;2023-07-24T12:34:55;21.10;73.90
22645;DHT22;11489;50.834;6.752;2023-07-24T12:37:20;21.00;74.50
22645;DHT22;11489;50.834;6.752;2023-07-24T12:39:47;20.90;74.80
22645;DHT22;11489;50.834;6.752;2023-07-24T12:42:14;20.80;75.50
22645;DHT22;11489;50.834;6.752;2023-07-24T12:44:40;20.70;75.40
22645;DHT22;11489;50.834;6.752;2023-07-24T12:47:06;20.60;76.00
22645;DHT22;11489;50.834;6.752;2023-07-24T12:49:32;20.60;76.40
22645;DHT22;11489;50.834;6.752;2023-07-24T12:51:57;20.60;76.80
22645;DHT22;11489;50.834;6.752;2023-07-24T12:54:23;20.50;77.10
22645;DHT22;11489;50.834;6.752;2023-07-24T12:56:50;20.40;77.80
22645;DHT22;11489;50.834;6.752;2023-07-24T12:59:19;20.40;78.30
22645;DHT22;11489;50.834;6.752;2023-07-24T13:01:45;20.40;78.50
22645;DHT22;11489;50.834;6.752;2023-07-24T13:04:11;20.30;78.90
22645;DHT22;11489;50.834;6.752;2023-07-24T13:06:37;20.30;79.30
22645;DHT22;11489;50.834;6.752;2023-07-24T13:09:03;20.40;79.90
22645;DHT22;11489;50.834;6.752;2023-07-24T13:11:29;20.40;80.30
22645;DHT22;11489;50.834;6.752;2023-07-24T13:13:55;20.40;80.10
22645;DHT22;11489;50.834;6.752;2023-07-24T13:16:21;20.50;80.80
22645;DHT22;11489;50.834;6.752;2023-07-24T13:18:47;20.60;81.50
22645;DHT22;11489;50.834;6.752;2023-07-24T13:21:13;20.70;81.70
22645;DHT22;11489;50.834;6.752;2023-07-24T13:23:40;20.80;82.00
22645;DHT22;11489;50.834;6.752;2023-07-24T13:26:05;20.90;82.10
22645;DHT22;11489;50.834;6.752;2023-07-24T13:28:34;21.00;82.20
22645;DHT22;11489;50.834;6.752;2023-07-24T13:31:10;21.10;82.00
22645;DHT22;11489;50.834;6.752;2023-07-24T13:33:36;21.20;81.50
22645;DHT22;11489;50.834;6.752;2023-07-24T13:36:01;21.20;81.00
22645;DHT22;11489;50.834;6.752;2023-07-24T13:38:27;21.30;80.40
22645;DHT22;11489;50.834;6.752;2023-07-24T13:40:53;21.20;80.20
22645;DHT22;11489;50.834;6.752;2023-07-24T13:43:19;21.20;80.00
22645;DHT22;11489;50.834;6.752;2023-07-24T13:45:45;21.20;79.70
22645;DHT22;11489;50.834;6.752;2023-07-24T13:48:11;21.10;79.40
22645;DHT22;11489;50.834;6.752;2023-07-24T13:50:36;21.00;79.20
22645;DHT22;11489;50.834;6.752;2023-07-24T13:53:02;20.90;79.20
22645;DHT22;11489;50.834;6.752;2023-07-24T13:55:28;20.80;79.10
22645;DHT22;11489;50.834;6.752;2023-07-24T13:57:54;20.60;78.70
22645;DHT22;11489;50.834;6.752;2023-07-24T14:00:20;20.30;79.70
22645;DHT22;11489;50.834;6.752;2023-07-24T14:02:46;20.10;80.90
22645;DHT22;11489;50.834;6.752;2023-07-24T14:05:15;19.90;82.00
22645;DHT22;11489;50.834;6.752;2023-07-24T14:07:41;19.70;83.30
22645;DHT22;11489;50.834;6.752;2023-07-24T14:10:08;19.60;84.20
22645;DHT22;11489;50.834;6.752;2023-07-24T14:12:34;19.50;85.00
22645;DHT22;11489;50.834;6.752;2023-07-24T14:15:00;19.40;85.60
22645;DHT22;11489;50.834;6.752;2023-07-24T14:17:25;19.30;86.20
22645;DHT22;11489;50.834;6.752;2023-07-24T14:19:51;19.30;86.70
22645;DHT22;11489;50.834;6.752;2023-07-24T14:22:17;19.30;87.00
22645;DHT22;11489;50.834;6.752;2023-07-24T14:24:45;19.30;87.90
22645;DHT22;11489;50.834;6.752;2023-07-24T14:27:15;19.30;88.40
22645;DHT22;11489;50.834;6.752;2023-07-24T14:29:41;19.30;88.60
22645;DHT22;11489;50.834;6.752;2023-07-24T14:32:07;19.40;88.70
22645;DHT22;11489;50.834;6.752;2023-07-24T14:34:33;19.40;89.10
22645;DHT22;11489;50.834;6.752;2023-07-24T14:36:58;19.50;89.50
22645;DHT22;11489;50.834;6.752;2023-07-24T14:39:24;19.60;89.70
22645;DHT22;11489;50.834;6.752;2023-07-24T14:41:51;19.60;89.50
22645;DHT22;11489;50.834;6.752;2023-07-24T14:44:17;19.70;89.60
22645;DHT22;11489;50.834;6.752;2023-07-24T14:46:42;19.70;89.60
22645;DHT22;11489;50.834;6.752;2023-07-24T14:49:08;19.80;89.20
22645;DHT22;11489;50.834;6.752;2023-07-24T14:51:34;19.90;89.00
22645;DHT22;11489;50.834;6.752;2023-07-24T14:53:59;19.90;89.00
22645;DHT22;11489;50.834;6.752;2023-07-24T14:56:25;19.90;88.90
22645;DHT22;11489;50.834;6.752;2023-07-24T14:58:51;20.00;89.20
22645;DHT22;11489;50.834;6.752;2023-07-24T15:01:16;20.10;89.50
22645;DHT22;11489;50.834;6.752;2023-07-24T15:03:42;20.30;89.90
22645;DHT22;11489;50.834;6.752;2023-07-24T15:06:08;20.40;90.20
22645;DHT22;11489;50.834;6.752;2023-07-24T15:08:34;20.70;89.80
22645;DHT22;11489;50.834;6.752;2023-07-24T15:11:00;20.90;89.20
22645;DHT22;11489;50.834;6.752;2023-07-24T15:13:28;21.10;89.30
22645;DHT22;11489;50.834;6.752;2023-07-24T15:15:54;21.30;89.10
22645;DHT22;11489;50.834;6.752;2023-07-24T15:18:20;21.50;88.40
22645;DHT22;11489;50.834;6.752;2023-07-24T15:20:46;21.70;87.80
22645;DHT22;11489;50.834;6.752;2023-07-24T15:23:12;21.90;87.40
22645;DHT22;11489;50.834;6.752;2023-07-24T15:25:39;22.10;86.40
22645;DHT22;11489;50.834;6.752;2023-07-24T15:28:04;22.20;85.20
22645;DHT22;11489;50.834;6.752;2023-07-24T15:30:31;22.40;85.50